sensor_id;sensor_type;location;lat;lon;timestamp;P1;durP1;ratioP1;P2;durP2;ratioP2
58972;SDS011;44750;52.040;7.472;2023-02-21T00:03:17;20.90;;;10.98;;
58972;SDS011;44750;52.040;7.472;2023-02-21T00:08:17;17.60;;;10.95;;
58972;SDS011;44750;52.040;7.472;2023-02-21T00:13:18;23.00;;;11.27;;
58972;SDS011;44750;52.040;7.472;2023-02-21T00:18:18;15.07;;;9.38;;
58972;SDS011;44750;52.040;7.472;2023-02-21T00:23:18;18.48;;;10.73;;
58972;SDS011;44750;52.040;7.472;2023-02-21T00:28:19;17.13;;;10.47;;
58972;SDS011;44750;52.040;7.472;2023-02-21T00:33:19;20.20;;;11.38;;
58972;SDS011;44750;52.040;7.472;2023-02-21T00:38:19;17.65;;;10.13;;
58972;SDS011;44750;52.040;7.472;2023-02-21T00:43:19;22.88;;;10.85;;
58972;SDS011;44750;52.040;7.472;2023-02-21T00:48:27;18.38;;;10.20;;
58972;SDS011;44750;52.040;7.472;2023-02-21T00:53:27;12.32;;;9.40;;
58972;SDS011;44750;52.040;7.472;2023-02-21T00:58:27;17.42;;;11.10;;
58972;SDS011;44750;52.040;7.472;2023-02-21T01:03:28;18.13;;;9.73;;
58972;SDS011;44750;52.040;7.472;2023-02-21T01:08:28;16.33;;;10.70;;
58972;SDS011;44750;52.040;7.472;2023-02-21T01:13:28;14.75;;;10.52;;
58972;SDS011;44750;52.040;7.472;2023-02-21T01:18:28;15.57;;;11.10;;
58972;SDS011;44750;52.040;7.472;2023-02-21T01:23:29;17.08;;;10.88;;
58972;SDS011;44750;52.040;7.472;2023-02-21T01:28:30;16.35;;;10.13;;
58972;SDS011;44750;52.040;7.472;2023-02-21T01:33:37;16.50;;;12.05;;
58972;SDS011;44750;52.040;7.472;2023-02-21T01:38:39;16.77;;;11.60;;
58972;SDS011;44750;52.040;7.472;2023-02-21T01:43:59;17.40;;;10.68;;
58972;SDS011;44750;52.040;7.472;2023-02-21T01:49:07;15.00;;;10.75;;
58972;SDS011;44750;52.040;7.472;2023-02-21T01:54:11;20.70;;;11.57;;
58972;SDS011;44750;52.040;7.472;2023-02-21T01:59:12;12.85;;;9.45;;
58972;SDS011;44750;52.040;7.472;2023-02-21T02:04:12;15.73;;;10.48;;
58972;SDS011;44750;52.040;7.472;2023-02-21T02:09:16;24.65;;;10.93;;
58972;SDS011;44750;52.040;7.472;2023-02-21T02:14:36;18.92;;;11.27;;
58972;SDS011;44750;52.040;7.472;2023-02-21T02:24:57;12.88;;;8.65;;
58972;SDS011;44750;52.040;7.472;2023-02-21T02:35:48;21.63;;;11.13;;
58972;SDS011;44750;52.040;7.472;2023-02-21T02:41:03;16.67;;;10.75;;
58972;SDS011;44750;52.040;7.472;2023-02-21T02:46:12;18.27;;;10.15;;
58972;SDS011;44750;52.040;7.472;2023-02-21T02:51:18;16.42;;;10.50;;
58972;SDS011;44750;52.040;7.472;2023-02-21T02:56:19;15.90;;;9.02;;
58972;SDS011;44750;52.040;7.472;2023-02-21T03:07:00;21.77;;;9.88;;
58972;SDS011;44750;52.040;7.472;2023-02-21T03:12:17;18.38;;;10.25;;
58972;SDS011;44750;52.040;7.472;2023-02-21T03:17:31;13.30;;;8.68;;
58972;SDS011;44750;52.040;7.472;2023-02-21T03:22:36;16.92;;;10.07;;
58972;SDS011;44750;52.040;7.472;2023-02-21T03:27:37;11.38;;;8.82;;
58972;SDS011;44750;52.040;7.472;2023-02-21T03:32:39;16.17;;;9.52;;
58972;SDS011;44750;52.040;7.472;2023-02-21T03:37:45;11.82;;;9.27;;
58972;SDS011;44750;52.040;7.472;2023-02-21T03:42:47;13.10;;;9.68;;
58972;SDS011;44750;52.040;7.472;2023-02-21T03:47:48;16.25;;;10.73;;
58972;SDS011;44750;52.040;7.472;2023-02-21T03:52:48;16.83;;;10.57;;
58972;SDS011;44750;52.040;7.472;2023-02-21T03:57:48;14.82;;;9.75;;
58972;SDS011;44750;52.040;7.472;2023-02-21T04:02:48;19.58;;;10.80;;
58972;SDS011;44750;52.040;7.472;2023-02-21T04:07:49;19.02;;;10.18;;
58972;SDS011;44750;52.040;7.472;2023-02-21T04:12:49;16.52;;;11.23;;
58972;SDS011;44750;52.040;7.472;2023-02-21T04:17:49;14.85;;;10.32;;
58972;SDS011;44750;52.040;7.472;2023-02-21T04:22:49;21.55;;;10.27;;
58972;SDS011;44750;52.040;7.472;2023-02-21T04:27:49;21.13;;;10.38;;
58972;SDS011;44750;52.040;7.472;2023-02-21T04:32:50;16.52;;;10.48;;
58972;SDS011;44750;52.040;7.472;2023-02-21T04:37:50;25.30;;;10.77;;
58972;SDS011;44750;52.040;7.472;2023-02-21T04:42:50;13.68;;;10.80;;
58972;SDS011;44750;52.040;7.472;2023-02-21T04:47:50;13.85;;;9.50;;
58972;SDS011;44750;52.040;7.472;2023-02-21T04:52:51;18.00;;;11.52;;
58972;SDS011;44750;52.040;7.472;2023-02-21T04:57:51;17.20;;;10.57;;
58972;SDS011;44750;52.040;7.472;2023-02-21T05:02:51;24.13;;;12.20;;
58972;SDS011;44750;52.040;7.472;2023-02-21T05:07:51;24.23;;;12.77;;
58972;SDS011;44750;52.040;7.472;2023-02-21T05:12:51;15.63;;;12.13;;
58972;SDS011;44750;52.040;7.472;2023-02-21T05:17:52;25.10;;;12.48;;
58972;SDS011;44750;52.040;7.472;2023-02-21T05:22:52;20.70;;;12.15;;
58972;SDS011;44750;52.040;7.472;2023-02-21T05:27:52;20.77;;;13.13;;
58972;SDS011;44750;52.040;7.472;2023-02-21T05:32:53;24.73;;;12.30;;
58972;SDS011;44750;52.040;7.472;2023-02-21T05:37:53;20.27;;;11.18;;
58972;SDS011;44750;52.040;7.472;2023-02-21T05:42:53;17.60;;;10.18;;
58972;SDS011;44750;52.040;7.472;2023-02-21T05:47:53;22.42;;;11.65;;
58972;SDS011;44750;52.040;7.472;2023-02-21T05:52:54;23.73;;;10.82;;
58972;SDS011;44750;52.040;7.472;2023-02-21T05:57:55;17.40;;;11.70;;
58972;SDS011;44750;52.040;7.472;2023-02-21T06:02:56;19.67;;;10.47;;
58972;SDS011;44750;52.040;7.472;2023-02-21T06:07:56;17.50;;;10.27;;
58972;SDS011;44750;52.040;7.472;2023-02-21T06:12:58;26.17;;;11.02;;
58972;SDS011;44750;52.040;7.472;2023-02-21T06:17:58;13.15;;;10.75;;
58972;SDS011;44750;52.040;7.472;2023-02-21T06:22:58;12.20;;;9.38;;
58972;SDS011;44750;52.040;7.472;2023-02-21T06:27:59;16.50;;;9.32;;
58972;SDS011;44750;52.040;7.472;2023-02-21T06:32:59;14.27;;;8.90;;
58972;SDS011;44750;52.040;7.472;2023-02-21T06:37:59;13.60;;;7.30;;
58972;SDS011;44750;52.040;7.472;2023-02-21T06:42:59;8.68;;;6.38;;
58972;SDS011;44750;52.040;7.472;2023-02-21T06:47:59;9.10;;;7.63;;
58972;SDS011;44750;52.040;7.472;2023-02-21T06:53:00;9.15;;;6.57;;
58972;SDS011;44750;52.040;7.472;2023-02-21T06:58:00;14.98;;;8.90;;
58972;SDS011;44750;52.040;7.472;2023-02-21T07:03:00;14.23;;;7.43;;
58972;SDS011;44750;52.040;7.472;2023-02-21T07:08:01;22.35;;;8.65;;
58972;SDS011;44750;52.040;7.472;2023-02-21T07:13:01;15.88;;;7.50;;
58972;SDS011;44750;52.040;7.472;2023-02-21T07:18:01;21.33;;;8.57;;
58972;SDS011;44750;52.040;7.472;2023-02-21T07:23:01;12.88;;;6.78;;
58972;SDS011;44750;52.040;7.472;2023-02-21T07:28:02;18.10;;;8.40;;
58972;SDS011;44750;52.040;7.472;2023-02-21T07:33:02;12.03;;;10.23;;
58972;SDS011;44750;52.040;7.472;2023-02-21T07:38:02;16.60;;;11.05;;
58972;SDS011;44750;52.040;7.472;2023-02-21T07:43:02;16.85;;;11.30;;
58972;SDS011;44750;52.040;7.472;2023-02-21T07:48:03;20.90;;;11.02;;
58972;SDS011;44750;52.040;7.472;2023-02-21T07:53:03;20.90;;;12.52;;
58972;SDS011;44750;52.040;7.472;2023-02-21T07:58:04;19.30;;;11.82;;
58972;SDS011;44750;52.040;7.472;2023-02-21T08:03:04;28.55;;;12.90;;
58972;SDS011;44750;52.040;7.472;2023-02-21T08:08:08;29.15;;;11.98;;
58972;SDS011;44750;52.040;7.472;2023-02-21T08:13:09;18.88;;;11.18;;
58972;SDS011;44750;52.040;7.472;2023-02-21T08:18:16;18.95;;;11.40;;
58972;SDS011;44750;52.040;7.472;2023-02-21T08:23:17;20.33;;;12.57;;
58972;SDS011;44750;52.040;7.472;2023-02-21T08:28:18;23.90;;;12.07;;
58972;SDS011;44750;52.040;7.472;2023-02-21T08:33:18;23.88;;;12.40;;
58972;SDS011;44750;52.040;7.472;2023-02-21T08:38:19;20.55;;;11.60;;
58972;SDS011;44750;52.040;7.472;2023-02-21T08:43:20;21.48;;;12.27;;
58972;SDS011;44750;52.040;7.472;2023-02-21T08:48:20;13.60;;;10.80;;
58972;SDS011;44750;52.040;7.472;2023-02-21T08:53:20;22.05;;;11.23;;
58972;SDS011;44750;52.040;7.472;2023-02-21T08:58:20;21.38;;;12.13;;
58972;SDS011;44750;52.040;7.472;2023-02-21T09:03:21;19.30;;;12.45;;
58972;SDS011;44750;52.040;7.472;2023-02-21T09:08:21;17.23;;;10.65;;
58972;SDS011;44750;52.040;7.472;2023-02-21T09:13:21;20.00;;;12.02;;
58972;SDS011;44750;52.040;7.472;2023-02-21T09:18:21;22.33;;;10.25;;
58972;SDS011;44750;52.040;7.472;2023-02-21T09:23:23;15.40;;;10.48;;
58972;SDS011;44750;52.040;7.472;2023-02-21T09:28:25;25.65;;;11.60;;
58972;SDS011;44750;52.040;7.472;2023-02-21T09:33:25;29.50;;;11.05;;
58972;SDS011;44750;52.040;7.472;2023-02-21T09:38:25;15.35;;;8.65;;
58972;SDS011;44750;52.040;7.472;2023-02-21T09:43:35;15.43;;;8.87;;
58972;SDS011;44750;52.040;7.472;2023-02-21T09:48:38;13.82;;;7.55;;
58972;SDS011;44750;52.040;7.472;2023-02-21T09:53:42;15.23;;;8.45;;
58972;SDS011;44750;52.040;7.472;2023-02-21T09:58:44;13.05;;;9.57;;
58972;SDS011;44750;52.040;7.472;2023-02-21T10:03:47;10.57;;;7.38;;
58972;SDS011;44750;52.040;7.472;2023-02-21T10:14:35;14.88;;;8.48;;
58972;SDS011;44750;52.040;7.472;2023-02-21T10:19:59;16.88;;;7.80;;
58972;SDS011;44750;52.040;7.472;2023-02-21T10:25:26;13.40;;;8.20;;
58972;SDS011;44750;52.040;7.472;2023-02-21T10:30:31;11.13;;;7.22;;
58972;SDS011;44750;52.040;7.472;2023-02-21T10:35:37;13.48;;;6.95;;
58972;SDS011;44750;52.040;7.472;2023-02-21T10:40:39;10.27;;;6.90;;
58972;SDS011;44750;52.040;7.472;2023-02-21T10:45:53;10.43;;;6.93;;
58972;SDS011;44750;52.040;7.472;2023-02-21T11:01:16;11.35;;;6.80;;
58972;SDS011;44750;52.040;7.472;2023-02-21T11:06:38;8.85;;;6.28;;
58972;SDS011;44750;52.040;7.472;2023-02-21T11:11:45;8.15;;;6.18;;
58972;SDS011;44750;52.040;7.472;2023-02-21T11:17:02;7.72;;;5.80;;
58972;SDS011;44750;52.040;7.472;2023-02-21T11:22:24;13.65;;;6.72;;
58972;SDS011;44750;52.040;7.472;2023-02-21T11:27:25;11.48;;;7.72;;
58972;SDS011;44750;52.040;7.472;2023-02-21T11:32:30;11.60;;;6.95;;
58972;SDS011;44750;52.040;7.472;2023-02-21T11:37:34;12.52;;;7.53;;
58972;SDS011;44750;52.040;7.472;2023-02-21T11:42:47;5.22;;;4.60;;
58972;SDS011;44750;52.040;7.472;2023-02-21T11:47:50;10.93;;;5.40;;
58972;SDS011;44750;52.040;7.472;2023-02-21T11:58:16;7.95;;;5.22;;
58972;SDS011;44750;52.040;7.472;2023-02-21T12:25:06;3.88;;;3.30;;
58972;SDS011;44750;52.040;7.472;2023-02-21T12:40:48;4.78;;;2.78;;
58972;SDS011;44750;52.040;7.472;2023-02-21T12:46:05;10.15;;;3.53;;
58972;SDS011;44750;52.040;7.472;2023-02-21T12:51:13;12.65;;;3.03;;
58972;SDS011;44750;52.040;7.472;2023-02-21T13:08:01;3.13;;;2.80;;
58972;SDS011;44750;52.040;7.472;2023-02-21T13:13:24;4.55;;;3.35;;
58972;SDS011;44750;52.040;7.472;2023-02-21T13:18:30;3.42;;;2.95;;
58972;SDS011;44750;52.040;7.472;2023-02-21T13:23:50;3.47;;;3.10;;
58972;SDS011;44750;52.040;7.472;2023-02-21T13:28:57;8.27;;;3.20;;
58972;SDS011;44750;52.040;7.472;2023-02-21T13:33:59;4.25;;;3.63;;
58972;SDS011;44750;52.040;7.472;2023-02-21T13:39:19;12.07;;;3.88;;
58972;SDS011;44750;52.040;7.472;2023-02-21T13:44:29;3.83;;;2.78;;
58972;SDS011;44750;52.040;7.472;2023-02-21T13:49:39;3.40;;;2.55;;
58972;SDS011;44750;52.040;7.472;2023-02-21T14:05:20;10.65;;;4.40;;
58972;SDS011;44750;52.040;7.472;2023-02-21T14:10:32;5.18;;;3.63;;
58972;SDS011;44750;52.040;7.472;2023-02-21T14:15:42;3.85;;;3.45;;
58972;SDS011;44750;52.040;7.472;2023-02-21T14:20:46;6.93;;;4.22;;
58972;SDS011;44750;52.040;7.472;2023-02-21T14:25:56;4.20;;;3.73;;
58972;SDS011;44750;52.040;7.472;2023-02-21T14:31:01;6.68;;;3.30;;
58972;SDS011;44750;52.040;7.472;2023-02-21T14:36:06;7.60;;;3.27;;
58972;SDS011;44750;52.040;7.472;2023-02-21T15:08:20;7.45;;;4.82;;
58972;SDS011;44750;52.040;7.472;2023-02-21T15:18:29;13.05;;;4.57;;
58972;SDS011;44750;52.040;7.472;2023-02-21T15:23:41;6.70;;;3.67;;
58972;SDS011;44750;52.040;7.472;2023-02-21T15:28:42;3.63;;;3.05;;
58972;SDS011;44750;52.040;7.472;2023-02-21T15:33:42;10.52;;;4.47;;
58972;SDS011;44750;52.040;7.472;2023-02-21T15:39:25;4.55;;;2.88;;
58972;SDS011;44750;52.040;7.472;2023-02-21T15:44:15;5.53;;;3.38;;
58972;SDS011;44750;52.040;7.472;2023-02-21T15:49:26;4.90;;;2.80;;
58972;SDS011;44750;52.040;7.472;2023-02-21T15:59:34;3.28;;;2.83;;
58972;SDS011;44750;52.040;7.472;2023-02-21T16:04:35;7.13;;;3.40;;
58972;SDS011;44750;52.040;7.472;2023-02-21T16:09:40;5.32;;;4.38;;
58972;SDS011;44750;52.040;7.472;2023-02-21T16:14:54;6.70;;;4.40;;
58972;SDS011;44750;52.040;7.472;2023-02-21T16:19:57;8.40;;;5.05;;
58972;SDS011;44750;52.040;7.472;2023-02-21T16:30:30;11.77;;;6.07;;
58972;SDS011;44750;52.040;7.472;2023-02-21T16:35:32;6.07;;;4.82;;
58972;SDS011;44750;52.040;7.472;2023-02-21T16:40:34;7.68;;;4.93;;
58972;SDS011;44750;52.040;7.472;2023-02-21T16:45:56;9.20;;;5.82;;
58972;SDS011;44750;52.040;7.472;2023-02-21T16:51:01;6.57;;;4.03;;
58972;SDS011;44750;52.040;7.472;2023-02-21T16:56:04;9.52;;;5.15;;
58972;SDS011;44750;52.040;7.472;2023-02-21T17:01:07;11.88;;;6.32;;
58972;SDS011;44750;52.040;7.472;2023-02-21T17:06:25;18.17;;;7.28;;
58972;SDS011;44750;52.040;7.472;2023-02-21T17:11:29;17.52;;;10.90;;
58972;SDS011;44750;52.040;7.472;2023-02-21T17:16:29;28.65;;;16.30;;
58972;SDS011;44750;52.040;7.472;2023-02-21T17:21:30;9.23;;;6.10;;
58972;SDS011;44750;52.040;7.472;2023-02-21T17:26:30;8.00;;;5.38;;
58972;SDS011;44750;52.040;7.472;2023-02-21T17:31:31;8.65;;;6.90;;
58972;SDS011;44750;52.040;7.472;2023-02-21T17:36:35;7.93;;;5.57;;
58972;SDS011;44750;52.040;7.472;2023-02-21T17:41:43;5.47;;;3.88;;
58972;SDS011;44750;52.040;7.472;2023-02-21T17:46:51;6.30;;;4.60;;
58972;SDS011;44750;52.040;7.472;2023-02-21T17:51:53;6.47;;;3.63;;
58972;SDS011;44750;52.040;7.472;2023-02-21T17:56:54;7.65;;;4.15;;
58972;SDS011;44750;52.040;7.472;2023-02-21T18:01:58;32.75;;;17.42;;
58972;SDS011;44750;52.040;7.472;2023-02-21T18:06:58;14.15;;;7.60;;
58972;SDS011;44750;52.040;7.472;2023-02-21T18:11:59;9.77;;;4.53;;
58972;SDS011;44750;52.040;7.472;2023-02-21T18:16:59;8.50;;;5.35;;
58972;SDS011;44750;52.040;7.472;2023-02-21T18:22:00;6.72;;;4.90;;
58972;SDS011;44750;52.040;7.472;2023-02-21T18:27:00;7.97;;;6.47;;
58972;SDS011;44750;52.040;7.472;2023-02-21T18:32:00;10.35;;;5.95;;
58972;SDS011;44750;52.040;7.472;2023-02-21T18:37:00;7.00;;;5.23;;
58972;SDS011;44750;52.040;7.472;2023-02-21T18:42:01;9.37;;;6.20;;
58972;SDS011;44750;52.040;7.472;2023-02-21T18:47:01;10.52;;;6.65;;
58972;SDS011;44750;52.040;7.472;2023-02-21T18:52:01;12.02;;;8.88;;
58972;SDS011;44750;52.040;7.472;2023-02-21T18:57:02;12.70;;;9.13;;
58972;SDS011;44750;52.040;7.472;2023-02-21T19:02:02;17.90;;;11.43;;
58972;SDS011;44750;52.040;7.472;2023-02-21T19:07:06;13.23;;;9.70;;
58972;SDS011;44750;52.040;7.472;2023-02-21T19:17:07;15.45;;;9.98;;
58972;SDS011;44750;52.040;7.472;2023-02-21T19:22:08;24.00;;;12.05;;
58972;SDS011;44750;52.040;7.472;2023-02-21T19:27:08;19.40;;;11.35;;
58972;SDS011;44750;52.040;7.472;2023-02-21T19:32:08;27.65;;;16.38;;
58972;SDS011;44750;52.040;7.472;2023-02-21T19:37:08;37.10;;;23.33;;
58972;SDS011;44750;52.040;7.472;2023-02-21T19:42:09;28.60;;;14.40;;
58972;SDS011;44750;52.040;7.472;2023-02-21T19:47:09;24.50;;;13.60;;
58972;SDS011;44750;52.040;7.472;2023-02-21T19:52:09;18.52;;;11.77;;
58972;SDS011;44750;52.040;7.472;2023-02-21T19:57:09;23.92;;;11.98;;
58972;SDS011;44750;52.040;7.472;2023-02-21T20:02:10;24.40;;;13.30;;
58972;SDS011;44750;52.040;7.472;2023-02-21T20:07:11;24.25;;;12.18;;
58972;SDS011;44750;52.040;7.472;2023-02-21T20:12:14;26.63;;;11.90;;
58972;SDS011;44750;52.040;7.472;2023-02-21T20:17:15;18.63;;;12.43;;
58972;SDS011;44750;52.040;7.472;2023-02-21T20:22:15;24.48;;;13.70;;
58972;SDS011;44750;52.040;7.472;2023-02-21T20:27:16;19.85;;;11.25;;
58972;SDS011;44750;52.040;7.472;2023-02-21T20:32:16;23.60;;;12.82;;
58972;SDS011;44750;52.040;7.472;2023-02-21T20:37:16;20.73;;;14.82;;
58972;SDS011;44750;52.040;7.472;2023-02-21T20:42:17;25.17;;;13.57;;
58972;SDS011;44750;52.040;7.472;2023-02-21T20:47:17;20.52;;;12.55;;
58972;SDS011;44750;52.040;7.472;2023-02-21T20:52:17;23.27;;;13.63;;
58972;SDS011;44750;52.040;7.472;2023-02-21T20:57:21;22.90;;;13.38;;
58972;SDS011;44750;52.040;7.472;2023-02-21T21:02:23;25.98;;;15.30;;
58972;SDS011;44750;52.040;7.472;2023-02-21T21:07:23;25.83;;;13.73;;
58972;SDS011;44750;52.040;7.472;2023-02-21T21:12:24;40.63;;;24.10;;
58972;SDS011;44750;52.040;7.472;2023-02-21T21:17:24;29.25;;;17.30;;
58972;SDS011;44750;52.040;7.472;2023-02-21T21:22:25;20.88;;;13.50;;
58972;SDS011;44750;52.040;7.472;2023-02-21T21:27:26;29.45;;;14.60;;
58972;SDS011;44750;52.040;7.472;2023-02-21T21:32:26;18.48;;;13.23;;
58972;SDS011;44750;52.040;7.472;2023-02-21T21:37:28;22.80;;;13.80;;
58972;SDS011;44750;52.040;7.472;2023-02-21T21:42:28;24.42;;;14.32;;
58972;SDS011;44750;52.040;7.472;2023-02-21T21:47:29;20.92;;;13.77;;
58972;SDS011;44750;52.040;7.472;2023-02-21T21:52:30;24.85;;;14.38;;
58972;SDS011;44750;52.040;7.472;2023-02-21T21:57:31;25.15;;;13.95;;
58972;SDS011;44750;52.040;7.472;2023-02-21T22:02:32;21.35;;;13.48;;
58972;SDS011;44750;52.040;7.472;2023-02-21T22:07:32;28.48;;;13.23;;
58972;SDS011;44750;52.040;7.472;2023-02-21T22:12:32;29.85;;;15.25;;
58972;SDS011;44750;52.040;7.472;2023-02-21T22:17:32;25.65;;;13.63;;
58972;SDS011;44750;52.040;7.472;2023-02-21T22:22:32;28.27;;;13.05;;
58972;SDS011;44750;52.040;7.472;2023-02-21T22:27:33;22.98;;;14.10;;
58972;SDS011;44750;52.040;7.472;2023-02-21T22:32:33;25.35;;;14.05;;
58972;SDS011;44750;52.040;7.472;2023-02-21T22:37:34;22.30;;;13.85;;
58972;SDS011;44750;52.040;7.472;2023-02-21T22:42:34;28.88;;;13.88;;
58972;SDS011;44750;52.040;7.472;2023-02-21T22:47:34;27.65;;;13.55;;
58972;SDS011;44750;52.040;7.472;2023-02-21T22:52:34;21.52;;;13.40;;
58972;SDS011;44750;52.040;7.472;2023-02-21T22:57:35;23.03;;;12.97;;
58972;SDS011;44750;52.040;7.472;2023-02-21T23:02:35;23.58;;;13.88;;
58972;SDS011;44750;52.040;7.472;2023-02-21T23:07:35;16.75;;;12.95;;
58972;SDS011;44750;52.040;7.472;2023-02-21T23:12:35;29.08;;;12.77;;
58972;SDS011;44750;52.040;7.472;2023-02-21T23:17:36;20.88;;;13.02;;
58972;SDS011;44750;52.040;7.472;2023-02-21T23:22:37;28.20;;;14.45;;
58972;SDS011;44750;52.040;7.472;2023-02-21T23:27:37;20.27;;;13.75;;
58972;SDS011;44750;52.040;7.472;2023-02-21T23:32:37;21.75;;;14.68;;
58972;SDS011;44750;52.040;7.472;2023-02-21T23:37:37;30.88;;;14.57;;
58972;SDS011;44750;52.040;7.472;2023-02-21T23:42:37;26.65;;;15.75;;
58972;SDS011;44750;52.040;7.472;2023-02-21T23:47:38;24.83;;;14.85;;
58972;SDS011;44750;52.040;7.472;2023-02-21T23:52:39;24.27;;;14.85;;
58972;SDS011;44750;52.040;7.472;2023-02-21T23:57:41;35.45;;;13.98;;
